Time;durP1;ratioP1;P1;durP2;ratioP2;P2;SDS_P1;SDS_P2;PMS_P1;PMS_P2;Temp;Humidity;BMP_temperature;BMP_pressure;BME280_temperature;BME280_humidity;BME280_pressure;Samples;Min_cycle;Max_cycle;Signal;HPM_P1;HPM_P2
2023/01/03 00:00:36;;;;;;;6.43;3.58;;;;;;;;;;5038099;28;20056;-79
2023/01/03 00:03:02;;;;;;;9.88;3.83;;;;;;;;;;5022042;28;20039;-79
2023/01/03 00:05:28;;;;;;;8.60;3.75;;;;;;;;;;5021114;28;20036;-78
2023/01/03 00:07:53;;;;;;;7.93;3.70;;;;;;;;;;5022040;28;20033;-79
2023/01/03 00:10:19;;;;;;;7.28;4.05;;;;;;;;;;5038151;28;20029;-78
2023/01/03 00:12:44;;;;;;;8.13;3.60;;;;;;;;;;5023830;28;20032;-79
2023/01/03 00:15:10;;;;;;;5.80;3.28;;;;;;;;;;5022253;28;20038;-78
2023/01/03 00:17:35;;;;;;;7.93;3.60;;;;;;;;;;5021360;28;20030;-78
2023/01/03 00:20:00;;;;;;;9.70;4.00;;;;;;;;;;5032028;28;20687;-79
2023/01/03 00:22:30;;;;;;;8.90;4.05;;;;;;;;;;5039944;28;20123;-78
2023/01/03 00:24:55;;;;;;;9.55;4.32;;;;;;;;;;5022578;28;20090;-79
2023/01/03 00:27:21;;;;;;;10.60;4.75;;;;;;;;;;5036449;28;20413;-78
2023/01/03 00:29:46;;;;;;;13.15;4.97;;;;;;;;;;5024344;28;20063;-79
2023/01/03 00:32:12;;;;;;;13.23;5.28;;;;;;;;;;5031203;28;20205;-78
2023/01/03 00:34:37;;;;;;;10.45;4.75;;;;;;;;;;5022898;28;20052;-78
2023/01/03 00:37:03;;;;;;;10.93;4.80;;;;;;;;;;5014903;28;20025;-79
2023/01/03 00:39:28;;;;;;;10.40;4.40;;;;;;;;;;5019886;28;20056;-78
2023/01/03 00:41:54;;;;;;;11.43;4.35;;;;;;;;;;5030367;28;20099;-79
2023/01/03 00:44:19;;;;;;;14.10;4.82;;;;;;;;;;5035696;28;20510;-78
2023/01/03 00:46:45;;;;;;;9.95;4.20;;;;;;;;;;5042832;28;20842;-79
2023/01/03 00:49:11;;;;;;;10.27;4.40;;;;;;;;;;5026046;28;20049;-79
2023/01/03 00:51:38;;;;;;;8.95;4.00;;;;;;;;;;5038548;28;20433;-78
2023/01/03 00:54:05;;;;;;;8.88;4.15;;;;;;;;;;5034391;28;20032;-79
2023/01/03 00:56:35;;;;;;;9.77;4.05;;;;;;;;;;5018536;28;20489;-79
2023/01/03 00:59:04;;;;;;;9.05;4.10;;;;;;;;;;5018538;28;20086;-78
2023/01/03 01:01:33;;;;;;;11.93;4.28;;;;;;;;;;5024444;28;20025;-78
2023/01/03 01:04:08;;;;;;;6.70;3.53;;;;;;;;;;5043090;28;20555;-79
2023/01/03 01:06:37;;;;;;;10.00;4.13;;;;;;;;;;5042217;28;20025;-79
2023/01/03 01:09:05;;;;;;;7.35;3.85;;;;;;;;;;5037042;28;20048;-79
2023/01/03 01:11:31;;;;;;;8.05;4.03;;;;;;;;;;5006631;28;20041;-79
2023/01/03 01:13:57;;;;;;;10.80;3.78;;;;;;;;;;5036298;28;20398;-78
2023/01/03 01:16:29;;;;;;;6.75;3.38;;;;;;;;;;5042246;28;20024;-79
2023/01/03 01:18:54;;;;;;;8.95;3.50;;;;;;;;;;5042874;28;20103;-79
2023/01/03 01:21:26;;;;;;;8.35;3.67;;;;;;;;;;5042064;28;20124;-78
2023/01/03 01:23:52;;;;;;;12.02;3.80;;;;;;;;;;5042234;28;20781;-78
2023/01/03 01:26:20;;;;;;;9.80;3.47;;;;;;;;;;5042425;28;20490;-79
2023/01/03 01:28:46;;;;;;;8.55;3.42;;;;;;;;;;5041475;28;20056;-78
2023/01/03 01:31:15;;;;;;;6.88;3.55;;;;;;;;;;5025161;28;20509;-79
2023/01/03 01:33:41;;;;;;;8.05;3.67;;;;;;;;;;5042355;28;20098;-79
2023/01/03 01:36:09;;;;;;;8.13;3.88;;;;;;;;;;5024406;28;20874;-79
2023/01/03 01:38:34;;;;;;;9.45;3.40;;;;;;;;;;5038274;28;20048;-79
2023/01/03 01:40:59;;;;;;;8.30;3.13;;;;;;;;;;5017656;28;20033;-79
2023/01/03 01:46:20;;;;;;;8.73;3.45;;;;;;;;;;5035768;28;20086;-80
2023/01/03 01:48:51;;;;;;;8.95;3.70;;;;;;;;;;5040621;28;20037;-79
2023/01/03 01:51:17;;;;;;;14.65;3.50;;;;;;;;;;5024382;28;20044;-78
2023/01/03 01:53:42;;;;;;;8.68;3.60;;;;;;;;;;5005769;28;20037;-79
2023/01/03 01:56:15;;;;;;;8.93;3.72;;;;;;;;;;5015457;28;20076;-79
2023/01/03 01:58:43;;;;;;;6.73;3.70;;;;;;;;;;5042381;28;20465;-79
2023/01/03 02:01:11;;;;;;;5.75;3.55;;;;;;;;;;5041636;28;20366;-79
2023/01/03 02:03:38;;;;;;;9.43;4.03;;;;;;;;;;5034261;28;20036;-79
2023/01/03 02:06:06;;;;;;;11.15;3.75;;;;;;;;;;5042792;28;20083;-78
2023/01/03 02:08:32;;;;;;;7.22;3.22;;;;;;;;;;5042356;28;20059;-79
2023/01/03 02:11:47;;;;;;;10.30;3.78;;;;;;;;;;5042588;28;20655;-78
2023/01/03 02:14:21;;;;;;;8.70;3.65;;;;;;;;;;4960161;28;20043;-79
2023/01/03 02:17:14;;;;;;;7.53;3.47;;;;;;;;;;5030375;28;20518;-78
2023/01/03 02:20:04;;;;;;;6.20;3.60;;;;;;;;;;5020015;28;20041;-79
2023/01/03 02:23:00;;;;;;;6.55;3.25;;;;;;;;;;5021935;28;20108;-78
2023/01/03 02:25:29;;;;;;;5.85;3.35;;;;;;;;;;5041192;28;20486;-78
2023/01/03 02:28:40;;;;;;;11.32;4.07;;;;;;;;;;5043356;28;20100;-78
2023/01/03 02:31:11;;;;;;;10.68;4.13;;;;;;;;;;5047383;28;20195;-79
2023/01/03 02:33:59;;;;;;;8.13;3.63;;;;;;;;;;5021020;28;20049;-78
2023/01/03 02:36:56;;;;;;;7.70;3.75;;;;;;;;;;5041328;28;20028;-79
2023/01/03 02:39:30;;;;;;;6.30;3.15;;;;;;;;;;4998705;28;20052;-78
2023/01/03 02:45:03;;;;;;;9.73;3.58;;;;;;;;;;5034810;28;20040;-79
2023/01/03 02:47:36;;;;;;;9.57;4.50;;;;;;;;;;5026981;28;20040;-78
2023/01/03 02:50:05;;;;;;;5.63;3.35;;;;;;;;;;5041933;28;20025;-78
2023/01/03 02:52:31;;;;;;;8.82;3.67;;;;;;;;;;5027162;28;20025;-78
2023/01/03 02:55:07;;;;;;;10.35;3.90;;;;;;;;;;5041719;28;20029;-78
2023/01/03 02:57:39;;;;;;;8.48;4.20;;;;;;;;;;5026534;28;20036;-78
2023/01/03 03:00:09;;;;;;;8.55;3.78;;;;;;;;;;5030459;28;20145;-78
2023/01/03 03:02:36;;;;;;;5.10;3.30;;;;;;;;;;5043237;28;20041;-78
2023/01/03 03:05:06;;;;;;;6.75;3.53;;;;;;;;;;5046610;28;20029;-79
2023/01/03 03:07:35;;;;;;;6.88;3.60;;;;;;;;;;5040601;28;20020;-79
2023/01/03 03:15:57;;;;;;;7.50;3.50;;;;;;;;;;5045735;28;20122;-79
2023/01/03 03:18:42;;;;;;;7.43;3.60;;;;;;;;;;5045535;28;20537;-79
2023/01/03 03:24:48;;;;;;;14.38;4.63;;;;;;;;;;5033766;28;20095;-78
2023/01/03 03:28:33;;;;;;;7.18;3.78;;;;;;;;;;5044940;28;20033;-79
2023/01/03 03:29:54;;;;;;;8.60;4.38;;;;;;;;;;5034989;28;20637;-78
2023/01/03 03:32:20;;;;;;;8.63;4.80;;;;;;;;;;5030019;28;20033;-79
2023/01/03 03:34:47;;;;;;;10.65;4.00;;;;;;;;;;5027672;28;20239;-79
2023/01/03 03:37:17;;;;;;;8.52;4.32;;;;;;;;;;5024321;28;20082;-79
2023/01/03 03:45:48;;;;;;;11.88;4.57;;;;;;;;;;5045844;28;20130;-79
2023/01/03 03:48:24;;;;;;;10.65;4.53;;;;;;;;;;5032675;28;20641;-78
2023/01/03 03:51:05;;;;;;;11.77;4.88;;;;;;;;;;5027070;28;20178;-78
2023/01/03 03:53:34;;;;;;;9.30;4.53;;;;;;;;;;5044412;28;20055;-79
2023/01/03 03:56:06;;;;;;;7.53;3.40;;;;;;;;;;5044169;28;20029;-79
2023/01/03 03:58:43;;;;;;;5.45;2.95;;;;;;;;;;5018246;28;20624;-79
2023/01/03 04:01:12;;;;;;;18.08;5.38;;;;;;;;;;5028815;28;20029;-79
2023/01/03 04:03:39;;;;;;;12.60;5.22;;;;;;;;;;5035465;28;20056;-79
2023/01/03 04:06:10;;;;;;;6.15;3.10;;;;;;;;;;5036918;28;20506;-79
2023/01/03 04:08:35;;;;;;;15.15;6.32;;;;;;;;;;5046404;28;20033;-79
2023/01/03 04:11:04;;;;;;;13.40;5.35;;;;;;;;;;5023958;28;20040;-79
2023/01/03 04:13:35;;;;;;;12.13;5.82;;;;;;;;;;5044409;28;20057;-79
2023/01/03 04:16:01;;;;;;;13.88;6.13;;;;;;;;;;5045864;28;20053;-79
2023/01/03 04:18:26;;;;;;;19.17;6.22;;;;;;;;;;5027509;28;20029;-79
2023/01/03 04:20:52;;;;;;;16.05;5.90;;;;;;;;;;5037265;28;20087;-79
2023/01/03 04:23:17;;;;;;;13.65;5.80;;;;;;;;;;5036569;28;20037;-79
2023/01/03 04:25:43;;;;;;;17.23;6.93;;;;;;;;;;5045664;28;20083;-79
2023/01/03 04:28:08;;;;;;;13.60;6.55;;;;;;;;;;5024598;28;20109;-79
2023/01/03 04:30:34;;;;;;;15.68;5.75;;;;;;;;;;5023764;28;20041;-79
2023/01/03 04:33:03;;;;;;;14.02;6.38;;;;;;;;;;5044829;28;20707;-80
2023/01/03 04:35:29;;;;;;;12.75;6.03;;;;;;;;;;5027679;28;20044;-80
2023/01/03 04:37:55;;;;;;;13.80;7.22;;;;;;;;;;5017751;28;20033;-79
2023/01/03 04:40:21;;;;;;;15.13;5.57;;;;;;;;;;5025812;28;20029;-79
2023/01/03 04:45:30;;;;;;;13.55;5.47;;;;;;;;;;5045853;28;20064;-79
2023/01/03 04:47:55;;;;;;;11.82;5.65;;;;;;;;;;5026916;28;20037;-79
2023/01/03 04:50:21;;;;;;;11.52;4.63;;;;;;;;;;5045021;28;20532;-80
2023/01/03 04:52:46;;;;;;;24.45;5.85;;;;;;;;;;5026366;28;20033;-79
2023/01/03 04:55:12;;;;;;;13.05;6.15;;;;;;;;;;5021002;28;20071;-80
2023/01/03 04:57:37;;;;;;;13.38;5.05;;;;;;;;;;5017894;28;20112;-79
2023/01/03 05:00:04;;;;;;;11.80;4.53;;;;;;;;;;5027790;28;20033;-80
2023/01/03 05:02:29;;;;;;;16.02;4.68;;;;;;;;;;5042957;28;20086;-80
2023/01/03 05:04:55;;;;;;;12.10;4.93;;;;;;;;;;5037681;28;20036;-79
2023/01/03 05:07:20;;;;;;;14.63;5.70;;;;;;;;;;5041602;28;20037;-80
2023/01/03 05:09:45;;;;;;;13.43;4.85;;;;;;;;;;5022306;28;20045;-79
2023/01/03 05:12:11;;;;;;;9.45;4.88;;;;;;;;;;5045288;28;20120;-79
2023/01/03 05:14:38;;;;;;;10.45;4.63;;;;;;;;;;5043399;28;20033;-79
2023/01/03 05:17:03;;;;;;;15.23;6.40;;;;;;;;;;5038478;28;20112;-80
2023/01/03 05:19:29;;;;;;;10.18;5.15;;;;;;;;;;5026682;28;20135;-80
2023/01/03 05:27:22;;;;;;;;;;;;;;;;;;5044952;28;20040;-80
2023/01/03 05:29:50;;;;;;;11.40;4.78;;;;;;;;;;5042325;28;19920;-79
2023/01/03 05:32:16;;;;;;;9.52;4.47;;;;;;;;;;5020063;28;20040;-80
2023/01/03 05:34:41;;;;;;;13.77;5.72;;;;;;;;;;5025946;28;20651;-80
2023/01/03 05:37:07;;;;;;;13.13;4.47;;;;;;;;;;5027128;28;20032;-80
2023/01/03 05:39:32;;;;;;;10.65;5.05;;;;;;;;;;5042913;28;20073;-80
2023/01/03 05:42:00;;;;;;;11.57;5.25;;;;;;;;;;5047714;28;20037;-80
2023/01/03 05:44:27;;;;;;;14.43;4.72;;;;;;;;;;5026257;28;20060;-80
2023/01/03 05:46:53;;;;;;;10.80;4.53;;;;;;;;;;5026810;28;20036;-80
2023/01/03 05:49:18;;;;;;;8.13;4.22;;;;;;;;;;5026487;28;20068;-80
2023/01/03 05:51:43;;;;;;;10.45;4.75;;;;;;;;;;5044924;28;20041;-79
2023/01/03 05:54:12;;;;;;;18.23;4.75;;;;;;;;;;5044308;28;20041;-80
2023/01/03 05:56:38;;;;;;;9.18;4.03;;;;;;;;;;5044839;28;20045;-80
2023/01/03 05:59:03;;;;;;;4.22;2.47;;;;;;;;;;5025031;28;20025;-80
2023/01/03 06:01:28;;;;;;;10.98;4.35;;;;;;;;;;5045163;28;20029;-80
2023/01/03 06:03:54;;;;;;;8.90;3.47;;;;;;;;;;5044942;28;20029;-80
2023/01/03 06:06:20;;;;;;;14.05;4.70;;;;;;;;;;5042912;28;20033;-80
2023/01/03 06:08:45;;;;;;;9.48;3.88;;;;;;;;;;5021348;28;20041;-80
2023/01/03 06:11:14;;;;;;;6.57;3.70;;;;;;;;;;5044738;28;20036;-80
2023/01/03 06:13:40;;;;;;;7.63;3.47;;;;;;;;;;5048081;28;20548;-80
2023/01/03 06:18:52;;;;;;;11.93;4.88;;;;;;;;;;5041396;28;20047;-81
2023/01/03 06:21:17;;;;;;;11.77;4.72;;;;;;;;;;5019047;28;20045;-80
2023/01/03 06:23:49;;;;;;;11.65;4.97;;;;;;;;;;5043457;28;20029;-80
2023/01/03 06:26:16;;;;;;;10.75;2.85;;;;;;;;;;5026914;28;20060;-81
2023/01/03 06:28:41;;;;;;;12.45;5.15;;;;;;;;;;5025163;28;20045;-81
2023/01/03 06:31:07;;;;;;;10.82;3.67;;;;;;;;;;5027180;28;20014;-80
2023/01/03 06:33:33;;;;;;;8.60;4.72;;;;;;;;;;5026499;28;20037;-80
2023/01/03 06:36:03;;;;;;;13.75;5.07;;;;;;;;;;5026370;28;20052;-81
2023/01/03 06:38:28;;;;;;;11.68;4.70;;;;;;;;;;5026446;28;20540;-80
2023/01/03 06:40:54;;;;;;;9.25;4.47;;;;;;;;;;5025545;28;20042;-80
2023/01/03 06:43:19;;;;;;;17.23;5.43;;;;;;;;;;5027076;28;20367;-80
2023/01/03 06:53:58;;;;;;;9.32;3.95;;;;;;;;;;5021384;28;20298;-80
2023/01/03 06:56:24;;;;;;;9.75;4.70;;;;;;;;;;5026876;28;20029;-80
2023/01/03 06:58:50;;;;;;;8.98;4.30;;;;;;;;;;5026387;28;20032;-80
2023/01/03 07:01:15;;;;;;;12.63;4.60;;;;;;;;;;5025471;28;20018;-79
2023/01/03 07:03:40;;;;;;;14.32;4.35;;;;;;;;;;5028220;28;20021;-80
2023/01/03 07:06:06;;;;;;;9.52;4.80;;;;;;;;;;5025279;28;20033;-79
2023/01/03 07:08:32;;;;;;;10.85;4.55;;;;;;;;;;5024051;28;20072;-79
2023/01/03 07:10:57;;;;;;;10.80;4.70;;;;;;;;;;5020112;28;20060;-80
2023/01/03 07:16:12;;;;;;;13.82;4.25;;;;;;;;;;5014623;28;20024;-79
2023/01/03 07:18:38;;;;;;;14.07;4.97;;;;;;;;;;5015069;28;20066;-80
2023/01/03 07:21:07;;;;;;;14.18;4.63;;;;;;;;;;5017425;28;20061;-79
2023/01/03 07:23:32;;;;;;;15.15;4.65;;;;;;;;;;5026709;28;20036;-80
2023/01/03 07:25:57;;;;;;;14.82;5.55;;;;;;;;;;5021715;28;20034;-78
2023/01/03 07:28:23;;;;;;;14.65;5.43;;;;;;;;;;5028645;28;20727;-80
2023/01/03 07:30:48;;;;;;;15.63;6.45;;;;;;;;;;5014365;28;20080;-79
2023/01/03 07:33:15;;;;;;;14.50;5.78;;;;;;;;;;5024987;28;20033;-79
2023/01/03 07:35:41;;;;;;;15.85;5.40;;;;;;;;;;5022472;28;20120;-81
2023/01/03 07:38:07;;;;;;;20.58;7.25;;;;;;;;;;5016012;28;20037;-80
2023/01/03 07:40:33;;;;;;;15.85;5.72;;;;;;;;;;5023590;28;20806;-80
2023/01/03 07:45:44;;;;;;;15.23;6.68;;;;;;;;;;5025914;28;20124;-79
2023/01/03 07:48:10;;;;;;;24.13;6.50;;;;;;;;;;5008570;28;20030;-80
2023/01/03 07:50:36;;;;;;;18.95;6.90;;;;;;;;;;5018341;28;20076;-80
2023/01/03 07:53:03;;;;;;;16.60;6.43;;;;;;;;;;5028474;28;20037;-80
2023/01/03 07:55:30;;;;;;;17.77;7.20;;;;;;;;;;5013944;28;20034;-79
2023/01/03 07:57:55;;;;;;;21.65;6.82;;;;;;;;;;5013261;28;20024;-80
2023/01/03 08:00:21;;;;;;;15.27;6.75;;;;;;;;;;5025922;28;20033;-80
2023/01/03 08:02:46;;;;;;;17.08;6.97;;;;;;;;;;5025367;28;20045;-80
2023/01/03 08:05:12;;;;;;;17.45;6.18;;;;;;;;;;5025394;28;20021;-80
2023/01/03 08:07:37;;;;;;;15.75;6.95;;;;;;;;;;5024373;28;20030;-80
2023/01/03 08:15:30;;;;;;;;;;;;;;;;;;5026330;28;20036;-80
2023/01/03 08:17:55;;;;;;;18.45;5.85;;;;;;;;;;5040256;28;20007;-80
2023/01/03 08:20:21;;;;;;;17.05;6.80;;;;;;;;;;5014856;28;20076;-79
2023/01/03 08:22:46;;;;;;;16.75;5.35;;;;;;;;;;5011277;28;20124;-79
2023/01/03 08:25:11;;;;;;;22.60;5.95;;;;;;;;;;5019931;28;20082;-79
2023/01/03 08:27:37;;;;;;;18.52;7.30;;;;;;;;;;5017101;28;20037;-79
2023/01/03 08:30:03;;;;;;;20.38;6.22;;;;;;;;;;5020446;28;20045;-79
2023/01/03 08:32:30;;;;;;;14.65;5.57;;;;;;;;;;5023993;28;20041;-79
2023/01/03 08:34:56;;;;;;;12.65;5.20;;;;;;;;;;5023364;28;20033;-79
2023/01/03 08:37:21;;;;;;;9.27;3.72;;;;;;;;;;5021126;28;20079;-79
2023/01/03 08:40:00;;;;;;;16.42;4.18;;;;;;;;;;5023592;28;20025;-79
2023/01/03 08:42:26;;;;;;;14.73;5.47;;;;;;;;;;5005335;28;20038;-79
2023/01/03 08:44:58;;;;;;;18.83;5.30;;;;;;;;;;5022571;28;20088;-79
2023/01/03 08:47:23;;;;;;;11.63;3.97;;;;;;;;;;5014167;28;20131;-79
2023/01/03 08:49:49;;;;;;;13.88;4.78;;;;;;;;;;5016837;28;20049;-79
2023/01/03 08:52:14;;;;;;;10.60;3.60;;;;;;;;;;5025683;28;20071;-80
2023/01/03 08:54:40;;;;;;;13.63;4.75;;;;;;;;;;5015612;28;20059;-80
2023/01/03 08:57:05;;;;;;;11.55;4.90;;;;;;;;;;5014078;28;20065;-80
2023/01/03 08:59:30;;;;;;;11.00;4.60;;;;;;;;;;5013766;28;20096;-79
2023/01/03 09:02:00;;;;;;;9.25;4.10;;;;;;;;;;5020242;28;20091;-80
2023/01/03 09:04:25;;;;;;;13.25;4.53;;;;;;;;;;5022804;28;20014;-79
2023/01/03 09:06:50;;;;;;;11.98;4.30;;;;;;;;;;5024083;28;20018;-79
2023/01/03 09:09:16;;;;;;;11.70;3.92;;;;;;;;;;5018979;28;20057;-79
2023/01/03 09:11:41;;;;;;;11.02;4.40;;;;;;;;;;5041973;28;20464;-79
2023/01/03 09:14:06;;;;;;;15.50;4.93;;;;;;;;;;5025749;28;20037;-80
2023/01/03 09:16:32;;;;;;;9.20;4.13;;;;;;;;;;5021518;28;20123;-79
2023/01/03 09:18:57;;;;;;;9.82;4.60;;;;;;;;;;5025206;28;20020;-80
2023/01/03 09:21:23;;;;;;;11.02;3.97;;;;;;;;;;5011593;28;21100;-79
2023/01/03 09:23:48;;;;;;;9.75;4.30;;;;;;;;;;5021313;28;20129;-80
2023/01/03 09:26:13;;;;;;;9.10;2.65;;;;;;;;;;5018390;28;20037;-79
2023/01/03 09:28:39;;;;;;;7.22;3.13;;;;;;;;;;5021813;28;20053;-79
2023/01/03 09:31:04;;;;;;;4.82;2.60;;;;;;;;;;5027125;28;20025;-79
2023/01/03 09:33:30;;;;;;;12.30;4.13;;;;;;;;;;5008912;28;20048;-80
2023/01/03 09:35:55;;;;;;;9.85;4.15;;;;;;;;;;5014791;28;20042;-79
2023/01/03 09:38:21;;;;;;;10.98;3.55;;;;;;;;;;5008892;28;20462;-80
2023/01/03 09:40:56;;;;;;;11.50;3.97;;;;;;;;;;5017058;28;20119;-80
2023/01/03 09:43:25;;;;;;;8.13;3.97;;;;;;;;;;5025530;28;20041;-80
2023/01/03 09:46:00;;;;;;;11.82;4.30;;;;;;;;;;5026208;28;20328;-79
2023/01/03 09:48:34;;;;;;;12.23;4.45;;;;;;;;;;5010186;28;20503;-78
2023/01/03 09:51:00;;;;;;;15.40;5.03;;;;;;;;;;5023659;28;20507;-80
2023/01/03 10:05:33;;;;;;;20.77;6.18;;;;;;;;;;5026511;28;20072;-79
2023/01/03 10:08:07;;;;;;;13.05;4.63;;;;;;;;;;5019703;28;20042;-77
2023/01/03 10:11:03;;;;;;;17.23;4.85;;;;;;;;;;5021679;28;20052;-78
2023/01/03 10:13:55;;;;;;;18.02;5.38;;;;;;;;;;5026221;28;20062;-79
2023/01/03 10:16:33;;;;;;;12.93;3.33;;;;;;;;;;5015942;28;20018;-77
2023/01/03 10:19:43;;;;;;;22.50;4.57;;;;;;;;;;5026432;28;20021;-78
2023/01/03 10:22:17;;;;;;;8.68;4.50;;;;;;;;;;5010693;28;20584;-79
2023/01/03 10:25:04;;;;;;;10.85;3.85;;;;;;;;;;5043013;28;20095;-78
2023/01/03 10:27:33;;;;;;;7.15;2.88;;;;;;;;;;5029761;28;20548;-78
2023/01/03 10:30:01;;;;;;;13.77;3.95;;;;;;;;;;5035430;28;20037;-79
2023/01/03 10:32:54;;;;;;;9.93;3.83;;;;;;;;;;5019474;28;20034;-78
2023/01/03 10:35:32;;;;;;;18.13;4.72;;;;;;;;;;5042319;28;20458;-81
2023/01/03 10:37:58;;;;;;;7.68;3.40;;;;;;;;;;5035562;28;20116;-79
2023/01/03 10:40:40;;;;;;;8.00;2.72;;;;;;;;;;5023544;28;20104;-78
2023/01/03 10:43:19;;;;;;;6.30;3.03;;;;;;;;;;5021106;28;20071;-79
2023/01/03 10:46:04;;;;;;;14.80;4.10;;;;;;;;;;5010249;28;20123;-78
2023/01/03 10:48:45;;;;;;;11.27;3.58;;;;;;;;;;5018974;28;20053;-78
2023/01/03 10:51:27;;;;;;;10.77;3.63;;;;;;;;;;5029911;28;20037;-78
2023/01/03 10:53:56;;;;;;;10.27;3.30;;;;;;;;;;5026895;28;20029;-79
2023/01/03 10:56:23;;;;;;;17.67;4.00;;;;;;;;;;5025611;28;20034;-80
2023/01/03 10:59:09;;;;;;;8.57;3.17;;;;;;;;;;5023595;28;20124;-79
2023/01/03 11:01:34;;;;;;;7.25;3.10;;;;;;;;;;5039873;28;20038;-79
2023/01/03 11:04:20;;;;;;;9.38;3.53;;;;;;;;;;5026466;28;20033;-78
2023/01/03 11:07:03;;;;;;;8.80;3.50;;;;;;;;;;5024140;28;20099;-79
2023/01/03 11:09:40;;;;;;;12.47;3.30;;;;;;;;;;5024557;28;20539;-79
2023/01/03 11:12:13;;;;;;;8.57;3.45;;;;;;;;;;5023872;28;20264;-79
2023/01/03 11:14:39;;;;;;;6.93;2.88;;;;;;;;;;5023076;28;20037;-79
2023/01/03 11:17:05;;;;;;;8.48;3.70;;;;;;;;;;5021472;28;20026;-79
2023/01/03 11:19:32;;;;;;;9.70;2.92;;;;;;;;;;5027774;28;20102;-80
2023/01/03 11:22:40;;;;;;;10.63;3.20;;;;;;;;;;5018804;28;20502;-79
2023/01/03 11:25:32;;;;;;;5.18;2.05;;;;;;;;;;5045115;28;20472;-79
2023/01/03 11:28:10;;;;;;;8.20;2.90;;;;;;;;;;5040787;28;20056;-79
2023/01/03 11:30:50;;;;;;;9.05;3.10;;;;;;;;;;5040720;28;20033;-79
2023/01/03 11:33:34;;;;;;;16.25;2.88;;;;;;;;;;5026910;28;20440;-77
2023/01/03 11:36:07;;;;;;;6.50;2.55;;;;;;;;;;5022978;28;20033;-78
2023/01/03 11:39:05;;;;;;;9.07;2.42;;;;;;;;;;5026406;28;20774;-79
2023/01/03 11:41:55;;;;;;;5.78;2.78;;;;;;;;;;4979791;28;20041;-78
2023/01/03 11:44:39;;;;;;;11.57;3.35;;;;;;;;;;5045594;28;20025;-78
2023/01/03 11:47:20;;;;;;;;;;;;;;;;;;5045149;28;20576;-79
2023/01/03 11:49:55;;;;;;;8.60;3.00;;;;;;;;;;5019090;28;20151;-79
2023/01/03 11:52:46;;;;;;;9.57;2.60;;;;;;;;;;5027165;28;20078;-78
2023/01/03 11:55:30;;;;;;;6.32;1.90;;;;;;;;;;5045685;28;20064;-76
2023/01/03 11:58:25;;;;;;;2.92;2.05;;;;;;;;;;5026778;28;20029;-78
2023/01/03 12:01:02;;;;;;;3.67;2.20;;;;;;;;;;5026439;28;20511;-78
2023/01/03 12:04:01;;;;;;;13.70;3.20;;;;;;;;;;5032975;28;20037;-77
2023/01/03 12:06:39;;;;;;;6.75;2.42;;;;;;;;;;5034755;28;20819;-78
2023/01/03 12:09:29;;;;;;;9.60;2.90;;;;;;;;;;5025648;28;20059;-79
2023/01/03 12:12:19;;;;;;;3.30;1.90;;;;;;;;;;5041455;28;20114;-76
2023/01/03 12:14:55;;;;;;;6.70;2.33;;;;;;;;;;5044773;28;20449;-80
2023/01/03 12:17:29;;;;;;;10.18;3.17;;;;;;;;;;5015688;28;20071;-79
2023/01/03 12:19:59;;;;;;;;;;;;;;;;;;5041626;28;20558;-79
2023/01/03 12:22:38;;;;;;;9.20;2.50;;;;;;;;;;5017544;28;19908;-79
2023/01/03 12:25:18;;;;;;;14.88;2.55;;;;;;;;;;5026321;28;20197;-79
2023/01/03 12:27:49;;;;;;;6.25;2.33;;;;;;;;;;5042289;28;20043;-79
2023/01/03 12:30:37;;;;;;;7.55;2.70;;;;;;;;;;5025074;28;20393;-79
2023/01/03 12:33:30;;;;;;;5.13;2.00;;;;;;;;;;5044008;28;20064;-79
2023/01/03 12:36:13;;;;;;;6.82;2.53;;;;;;;;;;5037950;28;20087;-76
2023/01/03 12:38:47;;;;;;;9.55;2.53;;;;;;;;;;5036001;28;20037;-75
2023/01/03 12:41:21;;;;;;;6.75;2.70;;;;;;;;;;5037885;28;20525;-75
2023/01/03 12:43:49;;;;;;;9.27;2.78;;;;;;;;;;5033541;28;20033;-76
2023/01/03 12:46:18;;;;;;;7.03;2.45;;;;;;;;;;5020324;28;20040;-77
2023/01/03 12:49:05;;;;;;;3.60;2.47;;;;;;;;;;5037318;28;20056;-79
2023/01/03 12:51:31;;;;;;;9.38;2.63;;;;;;;;;;5039038;28;20128;-78
2023/01/03 12:53:56;;;;;;;8.90;2.80;;;;;;;;;;5027674;28;20643;-77
2023/01/03 12:56:39;;;;;;;7.45;2.20;;;;;;;;;;5039663;28;20123;-78
2023/01/03 12:59:26;;;;;;;6.38;2.65;;;;;;;;;;5033968;28;20060;-77
2023/01/03 13:01:57;;;;;;;6.63;2.72;;;;;;;;;;5027652;28;20063;-77
2023/01/03 13:04:33;;;;;;;7.45;2.42;;;;;;;;;;5041376;28;20044;-77
2023/01/03 13:07:01;;;;;;;8.65;2.42;;;;;;;;;;5043436;28;20070;-77
2023/01/03 13:09:30;;;;;;;9.07;3.03;;;;;;;;;;5043902;28;20041;-77
2023/01/03 13:12:02;;;;;;;7.53;2.38;;;;;;;;;;5027511;28;20053;-77
2023/01/03 13:14:28;;;;;;;6.32;2.50;;;;;;;;;;5024789;28;20033;-77
2023/01/03 13:16:55;;;;;;;10.43;3.25;;;;;;;;;;5043371;28;20032;-77
2023/01/03 13:19:21;;;;;;;7.43;3.10;;;;;;;;;;5032675;28;20028;-77
2023/01/03 13:21:52;;;;;;;7.18;2.72;;;;;;;;;;5040025;28;20025;-77
2023/01/03 13:24:48;;;;;;;9.55;3.40;;;;;;;;;;5026938;28;20059;-77
2023/01/03 13:27:16;;;;;;;6.13;2.63;;;;;;;;;;5025358;28;20033;-77
2023/01/03 13:29:47;;;;;;;5.03;2.42;;;;;;;;;;5039466;28;20143;-77
2023/01/03 13:32:19;;;;;;;13.55;2.83;;;;;;;;;;5040134;28;20033;-77
2023/01/03 13:35:14;;;;;;;7.13;3.05;;;;;;;;;;5023101;28;20967;-77
2023/01/03 13:37:49;;;;;;;16.80;3.20;;;;;;;;;;5015311;28;20040;-78
2023/01/03 13:40:27;;;;;;;8.80;2.50;;;;;;;;;;5030518;28;20430;-78
2023/01/03 13:43:12;;;;;;;6.70;2.67;;;;;;;;;;5023894;28;20164;-78
2023/01/03 13:45:38;;;;;;;5.25;2.60;;;;;;;;;;5043421;28;20033;-77
2023/01/03 13:48:17;;;;;;;9.35;3.10;;;;;;;;;;5033227;28;20033;-77
2023/01/03 13:51:04;;;;;;;15.05;3.88;;;;;;;;;;5036077;28;20041;-77
2023/01/03 13:53:36;;;;;;;9.95;3.50;;;;;;;;;;5043412;28;20041;-78
2023/01/03 13:56:13;;;;;;;11.48;4.22;;;;;;;;;;5039907;28;20098;-78
2023/01/03 13:58:43;;;;;;;8.38;3.65;;;;;;;;;;5032189;28;20048;-78
2023/01/03 14:01:49;;;;;;;6.63;3.13;;;;;;;;;;5023682;28;20287;-78
2023/01/03 14:04:28;;;;;;;7.22;3.03;;;;;;;;;;5002630;28;20079;-77
2023/01/03 14:07:09;;;;;;;7.82;3.97;;;;;;;;;;5043725;28;20017;-78
2023/01/03 14:09:59;;;;;;;7.82;2.33;;;;;;;;;;5013977;28;20033;-78
2023/01/03 14:12:33;;;;;;;10.13;4.00;;;;;;;;;;5024782;28;20577;-78
2023/01/03 14:15:11;;;;;;;7.18;3.03;;;;;;;;;;5024542;28;20136;-77
2023/01/03 14:17:38;;;;;;;8.45;3.47;;;;;;;;;;5016810;28;20136;-81
2023/01/03 14:20:12;;;;;;;5.68;2.50;;;;;;;;;;5024898;28;20529;-81
2023/01/03 14:22:42;;;;;;;7.15;2.85;;;;;;;;;;5013965;28;20735;-78
2023/01/03 14:25:33;;;;;;;11.38;2.88;;;;;;;;;;5033270;28;20442;-81
2023/01/03 14:28:01;;;;;;;9.60;3.03;;;;;;;;;;5035741;28;20041;-80
2023/01/03 14:30:33;;;;;;;8.57;3.10;;;;;;;;;;5038617;28;20029;-81
2023/01/03 14:32:59;;;;;;;7.47;2.58;;;;;;;;;;5028421;28;20029;-80
2023/01/03 14:35:36;;;;;;;10.43;2.10;;;;;;;;;;5034230;28;20033;-81
2023/01/03 14:38:02;;;;;;;9.13;2.83;;;;;;;;;;5015499;28;20040;-80
2023/01/03 14:40:27;;;;;;;12.70;2.90;;;;;;;;;;5023036;28;20021;-79
2023/01/03 14:42:53;;;;;;;8.52;2.67;;;;;;;;;;5030758;28;20029;-81
2023/01/03 14:45:19;;;;;;;4.35;2.15;;;;;;;;;;5026577;28;20045;-81
2023/01/03 14:47:46;;;;;;;8.23;2.90;;;;;;;;;;5032513;28;20057;-81
2023/01/03 14:50:21;;;;;;;5.63;2.83;;;;;;;;;;5039280;28;20057;-80
2023/01/03 14:52:51;;;;;;;11.43;2.55;;;;;;;;;;5027556;28;20087;-85
2023/01/03 14:55:19;;;;;;;5.55;1.85;;;;;;;;;;5033388;28;20513;-82
2023/01/03 14:57:45;;;;;;;11.82;2.75;;;;;;;;;;5038903;28;20021;-83
2023/01/03 15:00:18;;;;;;;5.40;2.38;;;;;;;;;;5030421;28;20737;-81
2023/01/03 15:02:45;;;;;;;8.00;2.33;;;;;;;;;;5044410;28;20537;-82
2023/01/03 15:05:22;;;;;;;12.05;1.95;;;;;;;;;;5033719;28;20033;-82
2023/01/03 15:07:47;;;;;;;5.78;1.90;;;;;;;;;;5034467;28;20079;-80
2023/01/03 15:10:15;;;;;;;6.80;2.08;;;;;;;;;;5030798;28;20037;-82
2023/01/03 15:12:52;;;;;;;7.72;2.63;;;;;;;;;;5013936;28;20038;-82
2023/01/03 15:15:35;;;;;;;16.05;3.00;;;;;;;;;;5031631;28;20033;-80
2023/01/03 15:18:03;;;;;;;6.38;2.15;;;;;;;;;;5014139;28;20022;-83
2023/01/03 15:20:37;;;;;;;7.32;2.25;;;;;;;;;;5029145;28;20049;-80
2023/01/03 15:23:04;;;;;;;5.47;2.00;;;;;;;;;;5022961;28;20114;-80
2023/01/03 15:25:40;;;;;;;8.10;2.75;;;;;;;;;;5029022;28;20044;-83
2023/01/03 15:28:33;;;;;;;4.88;2.05;;;;;;;;;;5034507;28;20538;-82
2023/01/03 15:31:28;;;;;;;5.82;1.65;;;;;;;;;;5042252;28;20132;-82
2023/01/03 15:34:13;;;;;;;3.78;1.80;;;;;;;;;;5020165;28;20029;-80
2023/01/03 15:36:39;;;;;;;6.13;1.67;;;;;;;;;;5045431;28;20043;-81
2023/01/03 15:39:08;;;;;;;12.45;2.65;;;;;;;;;;5046154;28;20021;-82
2023/01/03 15:44:24;;;;;;;6.93;2.05;;;;;;;;;;5045766;28;20063;-79
2023/01/03 15:46:50;;;;;;;9.75;2.42;;;;;;;;;;5045905;28;20464;-78
2023/01/03 15:49:21;;;;;;;7.68;2.28;;;;;;;;;;5043407;28;20343;-79
2023/01/03 15:51:47;;;;;;;2.63;1.63;;;;;;;;;;5019984;28;20060;-79
2023/01/03 15:54:14;;;;;;;5.38;1.80;;;;;;;;;;5041560;28;20048;-79
2023/01/03 15:56:52;;;;;;;10.07;2.47;;;;;;;;;;5018469;28;20116;-79
2023/01/03 15:59:25;;;;;;;6.60;2.20;;;;;;;;;;5044845;28;20120;-73
2023/01/03 16:01:50;;;;;;;4.80;2.20;;;;;;;;;;5017627;28;20446;-78
2023/01/03 16:04:16;;;;;;;4.28;1.77;;;;;;;;;;5026912;28;20055;-80
2023/01/03 16:06:42;;;;;;;4.80;2.03;;;;;;;;;;5021552;28;20035;-86
2023/01/03 16:09:09;;;;;;;5.30;2.05;;;;;;;;;;5025765;28;20049;-89